sensor_id;sensor_type;location;lat;lon;timestamp;pressure;altitude;pressure_sealevel;temperature;humidity
55546;BME280;44768;50.298;127.520;2022-07-23T00:01:09;99262.59;;;36.60;32.30
55546;BME280;44768;50.298;127.520;2022-07-23T00:06:10;99262.06;;;36.49;32.59
55546;BME280;44768;50.298;127.520;2022-07-23T00:11:12;99268.56;;;35.57;33.21
55546;BME280;44768;50.298;127.520;2022-07-23T00:16:14;99250.78;;;35.04;34.90
55546;BME280;44768;50.298;127.520;2022-07-23T00:21:16;99249.69;;;34.75;35.85
55546;BME280;44768;50.298;127.520;2022-07-23T00:26:17;99256.22;;;34.68;35.77
55546;BME280;44768;50.298;127.520;2022-07-23T00:31:19;99241.44;;;34.44;35.97
55546;BME280;44768;50.298;127.520;2022-07-23T00:36:22;99253.50;;;34.14;35.39
55546;BME280;44768;50.298;127.520;2022-07-23T00:41:24;99242.03;;;34.05;36.37
55546;BME280;44768;50.298;127.520;2022-07-23T00:46:26;99238.53;;;34.71;35.64
55546;BME280;44768;50.298;127.520;2022-07-23T00:51:28;99234.88;;;35.57;34.34
55546;BME280;44768;50.298;127.520;2022-07-23T00:56:30;99243.13;;;35.64;33.85
55546;BME280;44768;50.298;127.520;2022-07-23T01:01:32;99241.63;;;34.77;34.57
55546;BME280;44768;50.298;127.520;2022-07-23T01:06:36;99249.78;;;34.21;36.32
55546;BME280;44768;50.298;127.520;2022-07-23T01:11:38;99224.84;;;33.76;36.90
55546;BME280;44768;50.298;127.520;2022-07-23T01:16:41;99228.03;;;33.14;37.89
55546;BME280;44768;50.298;127.520;2022-07-23T01:21:46;99230.28;;;32.92;38.66
55546;BME280;44768;50.298;127.520;2022-07-23T01:26:49;99233.50;;;32.46;38.31
55546;BME280;44768;50.298;127.520;2022-07-23T01:31:51;99223.28;;;32.25;39.01
55546;BME280;44768;50.298;127.520;2022-07-23T01:36:53;99223.56;;;31.86;38.04
55546;BME280;44768;50.298;127.520;2022-07-23T01:41:55;99220.97;;;31.43;39.84
55546;BME280;44768;50.298;127.520;2022-07-23T01:46:57;99210.22;;;31.41;39.20
55546;BME280;44768;50.298;127.520;2022-07-23T01:51:58;99211.16;;;31.03;40.02
55546;BME280;44768;50.298;127.520;2022-07-23T01:57:04;99224.28;;;31.13;40.47
55546;BME280;44768;50.298;127.520;2022-07-23T02:02:05;99211.53;;;31.12;39.46
55546;BME280;44768;50.298;127.520;2022-07-23T02:07:07;99205.50;;;31.24;40.53
55546;BME280;44768;50.298;127.520;2022-07-23T02:12:08;99201.50;;;31.25;39.47
55546;BME280;44768;50.298;127.520;2022-07-23T02:17:10;99212.31;;;31.16;39.87
55546;BME280;44768;50.298;127.520;2022-07-23T02:22:12;99194.50;;;30.88;40.07
55546;BME280;44768;50.298;127.520;2022-07-23T02:27:13;99184.00;;;31.28;39.73
55546;BME280;44768;50.298;127.520;2022-07-23T02:32:15;99179.91;;;31.50;39.05
55546;BME280;44768;50.298;127.520;2022-07-23T02:37:17;99176.03;;;31.30;39.38
55546;BME280;44768;50.298;127.520;2022-07-23T02:42:22;99174.44;;;31.22;40.08
55546;BME280;44768;50.298;127.520;2022-07-23T02:47:25;99175.25;;;31.19;40.28
55546;BME280;44768;50.298;127.520;2022-07-23T02:52:26;99176.97;;;30.91;40.76
55546;BME280;44768;50.298;127.520;2022-07-23T02:57:28;99171.41;;;30.84;41.19
55546;BME280;44768;50.298;127.520;2022-07-23T03:02:31;99171.81;;;30.79;41.34
55546;BME280;44768;50.298;127.520;2022-07-23T03:07:36;99157.13;;;30.61;40.45
55546;BME280;44768;50.298;127.520;2022-07-23T03:12:37;99158.69;;;30.62;41.68
55546;BME280;44768;50.298;127.520;2022-07-23T03:17:41;99155.16;;;30.51;40.15
55546;BME280;44768;50.298;127.520;2022-07-23T03:22:45;99150.75;;;30.68;39.81
55546;BME280;44768;50.298;127.520;2022-07-23T03:27:47;99146.78;;;30.72;38.05
55546;BME280;44768;50.298;127.520;2022-07-23T03:32:48;99149.16;;;30.77;38.76
55546;BME280;44768;50.298;127.520;2022-07-23T03:37:51;99144.34;;;30.88;38.76
55546;BME280;44768;50.298;127.520;2022-07-23T03:42:53;99140.25;;;31.14;38.58
55546;BME280;44768;50.298;127.520;2022-07-23T03:47:55;99125.84;;;31.30;39.53
55546;BME280;44768;50.298;127.520;2022-07-23T03:52:56;99119.19;;;31.03;39.52
55546;BME280;44768;50.298;127.520;2022-07-23T03:57:58;99118.34;;;31.16;39.60
55546;BME280;44768;50.298;127.520;2022-07-23T04:02:59;99110.63;;;31.45;39.22
55546;BME280;44768;50.298;127.520;2022-07-23T04:08:01;99103.22;;;31.73;38.88
55546;BME280;44768;50.298;127.520;2022-07-23T04:13:03;99106.31;;;31.89;38.09
55546;BME280;44768;50.298;127.520;2022-07-23T04:18:05;99102.59;;;32.06;38.09
55546;BME280;44768;50.298;127.520;2022-07-23T04:23:08;99094.22;;;32.06;37.96
55546;BME280;44768;50.298;127.520;2022-07-23T04:28:10;99083.47;;;32.05;38.50
55546;BME280;44768;50.298;127.520;2022-07-23T04:33:12;99073.66;;;31.86;38.09
55546;BME280;44768;50.298;127.520;2022-07-23T04:38:14;99080.13;;;31.76;39.46
55546;BME280;44768;50.298;127.520;2022-07-23T04:43:16;99053.91;;;31.63;38.70
55546;BME280;44768;50.298;127.520;2022-07-23T04:48:19;99069.03;;;31.65;37.40
55546;BME280;44768;50.298;127.520;2022-07-23T04:53:21;99062.31;;;31.59;37.55
55546;BME280;44768;50.298;127.520;2022-07-23T04:58:23;99051.00;;;31.77;37.71
55546;BME280;44768;50.298;127.520;2022-07-23T05:03:25;99021.94;;;31.71;37.63
55546;BME280;44768;50.298;127.520;2022-07-23T05:08:27;99051.22;;;32.00;37.98
55546;BME280;44768;50.298;127.520;2022-07-23T05:13:28;99050.38;;;32.03;37.38
55546;BME280;44768;50.298;127.520;2022-07-23T05:18:30;99042.81;;;32.04;38.05
55546;BME280;44768;50.298;127.520;2022-07-23T05:23:31;99036.19;;;31.87;37.51
55546;BME280;44768;50.298;127.520;2022-07-23T05:28:33;99028.69;;;32.18;36.67
55546;BME280;44768;50.298;127.520;2022-07-23T05:33:35;99024.16;;;31.97;36.95
55546;BME280;44768;50.298;127.520;2022-07-23T05:38:37;99029.19;;;31.65;37.87
55546;BME280;44768;50.298;127.520;2022-07-23T05:43:39;99018.97;;;31.47;37.27
55546;BME280;44768;50.298;127.520;2022-07-23T05:48:41;99017.44;;;31.39;37.35
55546;BME280;44768;50.298;127.520;2022-07-23T05:53:43;99008.91;;;31.61;36.77
55546;BME280;44768;50.298;127.520;2022-07-23T05:58:44;98999.31;;;32.06;36.46
55546;BME280;44768;50.298;127.520;2022-07-23T06:03:46;98991.88;;;32.30;36.21
55546;BME280;44768;50.298;127.520;2022-07-23T06:08:48;98986.19;;;32.41;35.06
55546;BME280;44768;50.298;127.520;2022-07-23T06:13:49;98989.63;;;32.52;35.38
55546;BME280;44768;50.298;127.520;2022-07-23T06:18:51;98986.69;;;32.29;36.09
55546;BME280;44768;50.298;127.520;2022-07-23T06:23:52;98983.16;;;32.25;35.05
55546;BME280;44768;50.298;127.520;2022-07-23T06:28:54;98982.03;;;32.19;36.33
55546;BME280;44768;50.298;127.520;2022-07-23T06:33:55;98993.66;;;32.13;35.62
55546;BME280;44768;50.298;127.520;2022-07-23T06:38:58;98985.75;;;32.73;35.54
55546;BME280;44768;50.298;127.520;2022-07-23T06:43:59;98982.41;;;33.12;33.96
55546;BME280;44768;50.298;127.520;2022-07-23T06:49:01;98978.91;;;33.08;35.59
55546;BME280;44768;50.298;127.520;2022-07-23T06:54:05;98973.78;;;32.72;36.22
55546;BME280;44768;50.298;127.520;2022-07-23T06:59:06;98994.28;;;32.62;36.95
55546;BME280;44768;50.298;127.520;2022-07-23T07:04:08;98990.41;;;32.87;36.15
55546;BME280;44768;50.298;127.520;2022-07-23T07:09:10;98983.81;;;33.51;34.96
55546;BME280;44768;50.298;127.520;2022-07-23T07:14:11;98959.69;;;34.04;34.61
55546;BME280;44768;50.298;127.520;2022-07-23T07:19:13;98973.84;;;34.16;35.15
55546;BME280;44768;50.298;127.520;2022-07-23T07:24:14;98971.53;;;34.11;34.60
55546;BME280;44768;50.298;127.520;2022-07-23T07:29:16;98973.31;;;34.02;35.47
55546;BME280;44768;50.298;127.520;2022-07-23T07:34:17;98963.47;;;34.13;34.79
55546;BME280;44768;50.298;127.520;2022-07-23T07:39:20;98976.13;;;34.21;34.51
55546;BME280;44768;50.298;127.520;2022-07-23T07:44:22;98959.16;;;33.89;35.00
55546;BME280;44768;50.298;127.520;2022-07-23T07:49:23;98959.72;;;33.57;35.11
55546;BME280;44768;50.298;127.520;2022-07-23T07:54:26;98972.09;;;33.32;35.13
55546;BME280;44768;50.298;127.520;2022-07-23T07:59:27;98967.16;;;33.44;35.54
55546;BME280;44768;50.298;127.520;2022-07-23T08:04:29;98965.69;;;33.36;35.87
55546;BME280;44768;50.298;127.520;2022-07-23T08:09:31;98969.91;;;33.20;36.17
55546;BME280;44768;50.298;127.520;2022-07-23T08:14:34;98971.72;;;32.77;36.79
55546;BME280;44768;50.298;127.520;2022-07-23T08:19:35;98971.69;;;32.16;37.97
55546;BME280;44768;50.298;127.520;2022-07-23T08:24:37;98976.16;;;32.09;38.58
55546;BME280;44768;50.298;127.520;2022-07-23T08:29:39;98976.47;;;32.19;37.88
55546;BME280;44768;50.298;127.520;2022-07-23T08:34:40;98981.47;;;32.34;38.12
55546;BME280;44768;50.298;127.520;2022-07-23T08:39:43;98987.28;;;32.13;38.43
55546;BME280;44768;50.298;127.520;2022-07-23T08:44:45;98985.09;;;31.94;38.61
55546;BME280;44768;50.298;127.520;2022-07-23T08:49:50;98969.13;;;31.94;38.79
55546;BME280;44768;50.298;127.520;2022-07-23T08:54:53;99000.16;;;32.03;38.53
55546;BME280;44768;50.298;127.520;2022-07-23T08:59:56;98996.41;;;31.79;39.25
55546;BME280;44768;50.298;127.520;2022-07-23T09:04:58;98989.22;;;31.30;39.90
55546;BME280;44768;50.298;127.520;2022-07-23T09:10:10;98969.13;;;31.01;40.19
55546;BME280;44768;50.298;127.520;2022-07-23T09:15:12;98989.53;;;30.80;40.44
55546;BME280;44768;50.298;127.520;2022-07-23T09:20:15;98987.25;;;30.57;40.61
55546;BME280;44768;50.298;127.520;2022-07-23T09:25:18;99010.72;;;30.60;41.47
55546;BME280;44768;50.298;127.520;2022-07-23T09:30:23;98999.16;;;30.72;41.53
55546;BME280;44768;50.298;127.520;2022-07-23T09:35:47;99004.28;;;30.77;41.43
55546;BME280;44768;50.298;127.520;2022-07-23T09:41:10;99006.72;;;30.61;41.07
55546;BME280;44768;50.298;127.520;2022-07-23T09:46:21;98999.53;;;30.63;41.20
55546;BME280;44768;50.298;127.520;2022-07-23T09:51:24;99001.56;;;30.59;41.34
55546;BME280;44768;50.298;127.520;2022-07-23T09:56:35;99005.53;;;30.62;41.08
55546;BME280;44768;50.298;127.520;2022-07-23T10:01:38;99009.16;;;30.52;41.16
55546;BME280;44768;50.298;127.520;2022-07-23T10:06:40;99012.41;;;30.33;41.19
55546;BME280;44768;50.298;127.520;2022-07-23T10:11:45;99008.09;;;30.24;41.20
55546;BME280;44768;50.298;127.520;2022-07-23T10:16:47;99010.84;;;30.21;41.36
55546;BME280;44768;50.298;127.520;2022-07-23T10:21:53;99018.41;;;30.13;42.01
55546;BME280;44768;50.298;127.520;2022-07-23T10:37:49;99020.47;;;29.66;42.37
55546;BME280;44768;50.298;127.520;2022-07-23T10:42:53;99021.63;;;29.48;42.70
55546;BME280;44768;50.298;127.520;2022-07-23T10:48:25;99027.56;;;29.25;42.70
55546;BME280;44768;50.298;127.520;2022-07-23T10:59:03;99006.84;;;28.90;43.43
55546;BME280;44768;50.298;127.520;2022-07-23T11:04:05;99033.84;;;29.00;44.07
55546;BME280;44768;50.298;127.520;2022-07-23T11:09:41;99030.63;;;28.91;44.05
55546;BME280;44768;50.298;127.520;2022-07-23T11:35:28;99064.53;;;28.38;46.24
55546;BME280;44768;50.298;127.520;2022-07-23T11:40:33;99065.31;;;28.35;46.35
55546;BME280;44768;50.298;127.520;2022-07-23T11:45:58;99065.28;;;28.28;46.59
55546;BME280;44768;50.298;127.520;2022-07-23T11:51:00;99063.63;;;28.20;46.94
55546;BME280;44768;50.298;127.520;2022-07-23T11:56:10;99071.53;;;28.18;47.41
55546;BME280;44768;50.298;127.520;2022-07-23T12:01:12;99082.63;;;28.18;47.16
55546;BME280;44768;50.298;127.520;2022-07-23T12:06:14;99077.44;;;28.09;47.28
55546;BME280;44768;50.298;127.520;2022-07-23T12:11:15;99090.06;;;28.03;47.72
55546;BME280;44768;50.298;127.520;2022-07-23T12:16:17;99092.00;;;27.96;48.27
55546;BME280;44768;50.298;127.520;2022-07-23T12:21:19;99099.06;;;27.86;48.52
55546;BME280;44768;50.298;127.520;2022-07-23T12:26:21;99095.78;;;27.80;48.53
55546;BME280;44768;50.298;127.520;2022-07-23T12:31:27;99098.13;;;27.75;49.07
55546;BME280;44768;50.298;127.520;2022-07-23T12:36:37;99089.38;;;27.69;49.41
55546;BME280;44768;50.298;127.520;2022-07-23T12:41:53;99090.91;;;27.63;49.76
55546;BME280;44768;50.298;127.520;2022-07-23T12:46:56;99094.03;;;27.58;49.40
55546;BME280;44768;50.298;127.520;2022-07-23T12:51:58;99086.06;;;27.53;49.69
55546;BME280;44768;50.298;127.520;2022-07-23T12:56:59;99070.09;;;27.39;49.64
55546;BME280;44768;50.298;127.520;2022-07-23T13:02:01;99076.81;;;27.38;49.63
55546;BME280;44768;50.298;127.520;2022-07-23T13:07:03;99080.78;;;27.41;50.19
55546;BME280;44768;50.298;127.520;2022-07-23T13:12:05;99066.69;;;27.19;50.50
55546;BME280;44768;50.298;127.520;2022-07-23T13:17:07;99080.00;;;27.03;50.89
55546;BME280;44768;50.298;127.520;2022-07-23T13:22:09;99074.66;;;26.57;51.89
55546;BME280;44768;50.298;127.520;2022-07-23T13:27:10;99075.44;;;26.28;52.97
55546;BME280;44768;50.298;127.520;2022-07-23T13:32:12;99083.75;;;25.78;54.25
55546;BME280;44768;50.298;127.520;2022-07-23T13:37:14;99081.84;;;25.60;54.57
55546;BME280;44768;50.298;127.520;2022-07-23T13:42:16;99080.50;;;25.73;54.35
55546;BME280;44768;50.298;127.520;2022-07-23T13:47:22;99056.06;;;25.75;53.87
55546;BME280;44768;50.298;127.520;2022-07-23T13:52:23;99059.56;;;25.98;53.77
55546;BME280;44768;50.298;127.520;2022-07-23T13:57:26;99068.75;;;26.02;53.68
55546;BME280;44768;50.298;127.520;2022-07-23T14:02:30;99055.13;;;25.90;53.70
55546;BME280;44768;50.298;127.520;2022-07-23T14:07:34;99053.81;;;25.84;53.92
55546;BME280;44768;50.298;127.520;2022-07-23T14:12:36;99072.94;;;25.93;54.10
55546;BME280;44768;50.298;127.520;2022-07-23T14:17:40;99073.38;;;25.72;54.19
55546;BME280;44768;50.298;127.520;2022-07-23T14:22:42;99061.53;;;25.48;54.63
55546;BME280;44768;50.298;127.520;2022-07-23T14:27:44;99081.00;;;25.56;54.73
55546;BME280;44768;50.298;127.520;2022-07-23T14:32:46;99085.91;;;25.43;55.13
55546;BME280;44768;50.298;127.520;2022-07-23T14:37:48;99057.00;;;25.17;55.21
55546;BME280;44768;50.298;127.520;2022-07-23T14:42:49;99079.25;;;25.25;55.12
55546;BME280;44768;50.298;127.520;2022-07-23T14:47:52;99079.53;;;25.19;55.25
55546;BME280;44768;50.298;127.520;2022-07-23T14:52:54;99093.63;;;25.14;55.30
55546;BME280;44768;50.298;127.520;2022-07-23T14:57:56;99093.28;;;25.16;55.20
55546;BME280;44768;50.298;127.520;2022-07-23T15:02:58;99093.63;;;25.14;55.15
55546;BME280;44768;50.298;127.520;2022-07-23T15:08:00;99085.59;;;25.06;55.22
55546;BME280;44768;50.298;127.520;2022-07-23T15:13:02;99089.97;;;24.87;55.68
55546;BME280;44768;50.298;127.520;2022-07-23T15:18:04;99095.00;;;24.66;56.49
55546;BME280;44768;50.298;127.520;2022-07-23T15:23:06;99098.22;;;24.68;56.43
55546;BME280;44768;50.298;127.520;2022-07-23T15:28:08;99097.88;;;24.54;56.77
55546;BME280;44768;50.298;127.520;2022-07-23T15:33:10;99092.94;;;24.44;56.77
55546;BME280;44768;50.298;127.520;2022-07-23T15:38:13;99097.59;;;24.40;57.00
55546;BME280;44768;50.298;127.520;2022-07-23T15:43:14;99101.50;;;24.39;56.98
55546;BME280;44768;50.298;127.520;2022-07-23T15:48:21;99066.06;;;24.21;56.93
55546;BME280;44768;50.298;127.520;2022-07-23T15:53:22;99085.50;;;24.28;57.03
55546;BME280;44768;50.298;127.520;2022-07-23T15:58:24;99093.50;;;24.34;57.10
55546;BME280;44768;50.298;127.520;2022-07-23T16:03:26;99089.69;;;24.38;57.00
55546;BME280;44768;50.298;127.520;2022-07-23T16:08:27;99096.00;;;24.39;56.91
55546;BME280;44768;50.298;127.520;2022-07-23T16:13:29;99070.22;;;24.15;56.84
55546;BME280;44768;50.298;127.520;2022-07-23T16:18:32;99080.56;;;24.18;56.75
55546;BME280;44768;50.298;127.520;2022-07-23T16:23:35;99075.69;;;23.96;57.25
55546;BME280;44768;50.298;127.520;2022-07-23T16:28:38;99073.38;;;23.82;57.69
55546;BME280;44768;50.298;127.520;2022-07-23T16:33:40;99074.19;;;23.83;57.68
55546;BME280;44768;50.298;127.520;2022-07-23T16:38:42;99069.84;;;23.82;57.82
55546;BME280;44768;50.298;127.520;2022-07-23T16:43:44;99069.22;;;23.73;57.91
55546;BME280;44768;50.298;127.520;2022-07-23T16:48:47;99057.13;;;23.61;57.93
55546;BME280;44768;50.298;127.520;2022-07-23T16:53:49;99040.00;;;23.52;57.99
55546;BME280;44768;50.298;127.520;2022-07-23T16:58:51;99066.28;;;23.65;57.73
55546;BME280;44768;50.298;127.520;2022-07-23T17:03:52;99080.31;;;23.60;57.97
55546;BME280;44768;50.298;127.520;2022-07-23T17:08:54;99075.09;;;23.55;57.80
55546;BME280;44768;50.298;127.520;2022-07-23T17:13:56;99074.09;;;23.63;58.25
55546;BME280;44768;50.298;127.520;2022-07-23T17:18:57;99071.50;;;23.71;57.91
55546;BME280;44768;50.298;127.520;2022-07-23T17:23:59;99070.09;;;23.77;57.71
55546;BME280;44768;50.298;127.520;2022-07-23T17:29:01;99081.22;;;23.80;57.59
55546;BME280;44768;50.298;127.520;2022-07-23T17:34:04;99070.03;;;23.73;57.41
55546;BME280;44768;50.298;127.520;2022-07-23T17:39:06;99075.44;;;23.69;57.71
55546;BME280;44768;50.298;127.520;2022-07-23T17:44:08;99059.81;;;23.58;57.33
55546;BME280;44768;50.298;127.520;2022-07-23T17:49:11;99073.72;;;23.49;57.48
55546;BME280;44768;50.298;127.520;2022-07-23T17:54:12;99072.84;;;23.45;57.63
55546;BME280;44768;50.298;127.520;2022-07-23T17:59:14;99083.16;;;23.48;57.66
55546;BME280;44768;50.298;127.520;2022-07-23T18:04:16;99085.56;;;23.34;57.87
55546;BME280;44768;50.298;127.520;2022-07-23T18:09:18;99092.25;;;23.21;58.05
55546;BME280;44768;50.298;127.520;2022-07-23T18:14:19;99084.75;;;23.05;58.37
55546;BME280;44768;50.298;127.520;2022-07-23T18:19:22;99073.22;;;23.16;58.40
55546;BME280;44768;50.298;127.520;2022-07-23T18:24:23;99072.25;;;23.24;58.09
55546;BME280;44768;50.298;127.520;2022-07-23T18:29:25;99088.59;;;23.17;57.88
55546;BME280;44768;50.298;127.520;2022-07-23T18:34:27;99095.56;;;22.98;58.20
55546;BME280;44768;50.298;127.520;2022-07-23T18:39:28;99099.75;;;22.80;58.65
55546;BME280;44768;50.298;127.520;2022-07-23T18:44:35;99105.53;;;22.63;59.09
55546;BME280;44768;50.298;127.520;2022-07-23T18:49:38;99098.00;;;22.47;59.19
55546;BME280;44768;50.298;127.520;2022-07-23T18:54:40;99114.06;;;22.45;58.91
55546;BME280;44768;50.298;127.520;2022-07-23T18:59:41;99121.63;;;22.24;59.44
55546;BME280;44768;50.298;127.520;2022-07-23T19:04:43;99115.22;;;22.20;59.56
55546;BME280;44768;50.298;127.520;2022-07-23T19:09:44;99109.94;;;22.27;59.26
55546;BME280;44768;50.298;127.520;2022-07-23T19:14:46;99122.06;;;22.38;58.94
55546;BME280;44768;50.298;127.520;2022-07-23T19:19:48;99113.13;;;22.41;59.18
55546;BME280;44768;50.298;127.520;2022-07-23T19:24:50;99122.06;;;22.51;58.94
55546;BME280;44768;50.298;127.520;2022-07-23T19:29:52;99129.41;;;22.46;58.45
55546;BME280;44768;50.298;127.520;2022-07-23T19:34:53;99128.16;;;22.32;59.05
55546;BME280;44768;50.298;127.520;2022-07-23T19:39:55;99136.16;;;22.49;58.82
55546;BME280;44768;50.298;127.520;2022-07-23T19:44:57;99128.00;;;22.53;58.64
55546;BME280;44768;50.298;127.520;2022-07-23T19:50:00;99133.06;;;22.51;58.72
55546;BME280;44768;50.298;127.520;2022-07-23T19:55:02;99131.44;;;22.62;58.95
55546;BME280;44768;50.298;127.520;2022-07-23T20:00:06;99136.94;;;22.62;58.34
55546;BME280;44768;50.298;127.520;2022-07-23T20:05:10;99135.34;;;22.61;58.38
55546;BME280;44768;50.298;127.520;2022-07-23T20:10:19;99144.03;;;22.63;58.67
55546;BME280;44768;50.298;127.520;2022-07-23T20:15:22;99138.03;;;22.85;58.74
55546;BME280;44768;50.298;127.520;2022-07-23T20:20:24;99146.88;;;23.06;57.83
55546;BME280;44768;50.298;127.520;2022-07-23T20:25:26;99125.88;;;23.14;57.40
55546;BME280;44768;50.298;127.520;2022-07-23T20:30:27;99145.59;;;23.44;57.17
55546;BME280;44768;50.298;127.520;2022-07-23T20:35:29;99146.88;;;23.62;56.69
55546;BME280;44768;50.298;127.520;2022-07-23T20:40:30;99140.66;;;23.65;56.29
55546;BME280;44768;50.298;127.520;2022-07-23T20:45:33;99146.16;;;23.65;55.91
55546;BME280;44768;50.298;127.520;2022-07-23T20:50:37;99150.47;;;23.79;55.82
55546;BME280;44768;50.298;127.520;2022-07-23T20:55:38;99146.38;;;24.04;55.57
55546;BME280;44768;50.298;127.520;2022-07-23T21:00:41;99151.84;;;24.36;55.21
55546;BME280;44768;50.298;127.520;2022-07-23T21:05:43;99144.75;;;24.35;54.53
55546;BME280;44768;50.298;127.520;2022-07-23T21:10:44;99148.13;;;24.44;54.52
55546;BME280;44768;50.298;127.520;2022-07-23T21:15:46;99150.38;;;24.73;53.74
55546;BME280;44768;50.298;127.520;2022-07-23T21:20:47;99148.22;;;24.82;53.76
55546;BME280;44768;50.298;127.520;2022-07-23T21:26:08;99156.47;;;25.02;53.18
55546;BME280;44768;50.298;127.520;2022-07-23T21:31:11;99162.91;;;25.06;53.30
55546;BME280;44768;50.298;127.520;2022-07-23T21:36:12;99155.06;;;25.08;53.70
55546;BME280;44768;50.298;127.520;2022-07-23T21:41:16;99156.06;;;25.38;53.25
55546;BME280;44768;50.298;127.520;2022-07-23T21:46:18;99153.28;;;25.80;52.41
55546;BME280;44768;50.298;127.520;2022-07-23T21:51:20;99132.19;;;26.45;51.16
55546;BME280;44768;50.298;127.520;2022-07-23T21:56:22;99137.13;;;27.18;49.90
55546;BME280;44768;50.298;127.520;2022-07-23T22:01:24;99145.22;;;27.68;49.72
55546;BME280;44768;50.298;127.520;2022-07-23T22:06:25;99144.75;;;28.58;47.66
55546;BME280;44768;50.298;127.520;2022-07-23T22:11:27;99155.13;;;28.71;46.61
55546;BME280;44768;50.298;127.520;2022-07-23T22:16:28;99157.25;;;28.30;47.70
55546;BME280;44768;50.298;127.520;2022-07-23T22:21:31;99155.09;;;28.61;48.00
55546;BME280;44768;50.298;127.520;2022-07-23T22:26:33;99154.78;;;29.85;44.68
55546;BME280;44768;50.298;127.520;2022-07-23T22:31:35;99153.75;;;31.19;42.67
55546;BME280;44768;50.298;127.520;2022-07-23T22:36:36;99157.34;;;33.44;39.00
55546;BME280;44768;50.298;127.520;2022-07-23T22:41:38;99157.69;;;36.63;34.31
55546;BME280;44768;50.298;127.520;2022-07-23T22:46:40;99146.91;;;37.96;31.53
55546;BME280;44768;50.298;127.520;2022-07-23T22:51:42;99140.31;;;39.15;29.67
55546;BME280;44768;50.298;127.520;2022-07-23T22:56:44;99137.66;;;37.95;31.27
55546;BME280;44768;50.298;127.520;2022-07-23T23:01:45;99140.25;;;38.02;31.97
55546;BME280;44768;50.298;127.520;2022-07-23T23:06:47;99152.81;;;39.36;29.59
55546;BME280;44768;50.298;127.520;2022-07-23T23:11:49;99138.78;;;39.95;28.13
55546;BME280;44768;50.298;127.520;2022-07-23T23:16:50;99132.00;;;39.83;29.34
55546;BME280;44768;50.298;127.520;2022-07-23T23:21:52;99139.00;;;39.07;28.63
55546;BME280;44768;50.298;127.520;2022-07-23T23:26:54;99135.75;;;36.74;34.03
55546;BME280;44768;50.298;127.520;2022-07-23T23:31:55;99129.47;;;35.56;35.75
55546;BME280;44768;50.298;127.520;2022-07-23T23:36:57;99137.78;;;34.64;37.14
55546;BME280;44768;50.298;127.520;2022-07-23T23:42:00;99138.72;;;34.11;38.32
55546;BME280;44768;50.298;127.520;2022-07-23T23:47:02;99122.16;;;33.73;38.54
55546;BME280;44768;50.298;127.520;2022-07-23T23:52:05;99133.72;;;33.75;38.60
55546;BME280;44768;50.298;127.520;2022-07-23T23:57:07;99106.00;;;33.27;39.24
